Terminal Aerodrome Forecast
Issued by NWS Northern Indiana

Home | Current Version | Previous Version | Graphics & Text | Print | Product List | Glossary On
Versions: 1 2 3 4 5 6 7 8 9 10 11 12 13 14 15 16 17 18 19
000
FTUS43 KIWX 171100
TAFFWA
TAF
KFWA 171120Z 1712/1812 VRB03KT 1/4SM FG VV002
     FM171330 VRB03KT 1SM BR BKN060
     FM171500 12003KT P6SM BKN050=

USA.gov is the U.S. government's official web portal to all federal, state and local government web resources and services.